Time,TemperatureF,DewpointF,PressureIn,WindDirection,WindDirectionDegrees,WindSpeedMPH,WindSpeedGustMPH,Humidity,HourlyPrecipIn,Conditions,Clouds,dailyrainin,SoftwareType,DateUTC
2013-05-23 00:01:00,43.9,40.6,29.91,WSW,248,0.7,1.6,88,0.00,,,0.00,WUHU216HW,2013-05-23 07:01:00,
2013-05-23 00:06:00,43.9,40.6,29.91,WSW,248,0.7,1.1,88,0.00,,,0.00,WUHU216HW,2013-05-23 07:06:00,
2013-05-23 00:11:00,43.9,40.6,29.91,SW,225,1.6,1.6,88,0.00,,,0.00,WUHU216HW,2013-05-23 07:11:00,
2013-05-23 00:16:00,43.9,40.6,29.91,SW,225,1.1,1.6,88,0.00,,,0.00,WUHU216HW,2013-05-23 07:16:00,
2013-05-23 00:21:00,43.7,40.4,29.91,SW,225,1.1,1.6,88,0.00,,,0.00,WUHU216HW,2013-05-23 07:21:00,
2013-05-23 00:26:00,43.7,40.4,29.91,SW,225,0.9,1.6,88,0.00,,,0.00,WUHU216HW,2013-05-23 07:26:00,
2013-05-23 00:31:00,43.7,40.4,29.91,SW,225,1.3,1.8,88,0.00,,,0.00,WUHU216HW,2013-05-23 07:31:00,
2013-05-23 00:36:00,43.7,40.4,29.91,SW,225,0.7,1.8,88,0.00,,,0.00,WUHU216HW,2013-05-23 07:36:00,
2013-05-23 00:41:00,43.9,40.6,29.91,SW,225,0.7,1.6,88,0.00,,,0.00,WUHU216HW,2013-05-23 07:41:00,
2013-05-23 00:46:00,43.9,40.6,29.91,SW,225,0.4,1.1,88,0.00,,,0.00,WUHU216HW,2013-05-23 07:46:00,
2013-05-23 00:51:00,43.9,40.6,29.91,SW,225,0.4,1.1,88,0.00,,,0.00,WUHU216HW,2013-05-23 07:51:00,
2013-05-23 00:56:00,43.9,40.6,29.91,SW,225,0.0,1.1,88,0.00,,,0.00,WUHU216HW,2013-05-23 07:56:00,
2013-05-23 01:01:00,43.9,40.6,29.91,SW,225,0.4,1.1,88,0.00,,,0.00,WUHU216HW,2013-05-23 08:01:00,
2013-05-23 01:06:00,43.7,40.4,29.91,SW,225,0.4,0.9,88,0.00,,,0.00,WUHU216HW,2013-05-23 08:06:00,
2013-05-23 01:11:00,43.6,40.2,29.91,SW,225,0.9,0.9,88,0.00,,,0.00,WUHU216HW,2013-05-23 08:11:00,
2013-05-23 01:16:00,43.6,40.2,29.91,SW,225,0.9,1.3,88,0.00,,,0.00,WUHU216HW,2013-05-23 08:16:00,
2013-05-23 01:21:00,43.6,40.2,29.91,WSW,248,0.4,1.3,88,0.00,,,0.00,WUHU216HW,2013-05-23 08:21:00,
2013-05-23 01:26:00,43.4,40.1,29.91,SW,225,0.9,1.6,88,0.00,,,0.00,WUHU216HW,2013-05-23 08:26:00,
2013-05-23 01:31:00,43.4,40.4,29.91,SW,225,0.2,1.6,89,0.00,,,0.00,WUHU216HW,2013-05-23 08:31:00,
2013-05-23 01:36:00,43.4,40.4,29.92,SW,225,0.0,1.3,89,0.00,,,0.00,WUHU216HW,2013-05-23 08:36:00,
2013-05-23 01:41:00,43.4,40.4,29.92,SW,225,0.0,0.4,89,0.00,,,0.00,WUHU216HW,2013-05-23 08:41:00,
2013-05-23 01:46:00,43.4,40.4,29.92,SW,225,0.4,0.4,89,0.00,,,0.00,WUHU216HW,2013-05-23 08:46:00,
2013-05-23 01:51:00,43.4,40.1,29.92,SW,225,0.4,2.5,88,0.00,,,0.00,WUHU216HW,2013-05-23 08:51:00,
2013-05-23 01:56:00,43.6,40.6,29.92,SSW,203,0.0,2.5,89,0.00,,,0.00,WUHU216HW,2013-05-23 08:56:00,
2013-05-23 02:01:00,43.6,40.6,29.92,SSW,203,0.0,0.4,89,0.00,,,0.00,WUHU216HW,2013-05-23 09:01:00,
2013-05-23 02:06:00,43.6,40.2,29.92,SSW,203,0.0,0.0,88,0.00,,,0.00,WUHU216HW,2013-05-23 09:06:00,
2013-05-23 02:11:00,43.6,40.2,29.92,SSW,203,0.0,0.2,88,0.00,,,0.00,WUHU216HW,2013-05-23 09:11:00,
2013-05-23 02:16:00,43.6,40.2,29.93,SSW,203,0.0,0.2,88,0.00,,,0.00,WUHU216HW,2013-05-23 09:16:00,
2013-05-23 02:21:00,43.6,40.2,29.93,SSW,203,0.0,0.2,88,0.00,,,0.00,WUHU216HW,2013-05-23 09:21:00,
2013-05-23 02:26:00,43.6,40.2,29.93,SSW,203,0.0,0.0,88,0.00,,,0.00,WUHU216HW,2013-05-23 09:26:00,
2013-05-23 02:31:00,43.6,40.2,29.93,SSW,203,0.0,0.0,88,0.00,,,0.00,WUHU216HW,2013-05-23 09:31:00,
2013-05-23 02:36:00,43.6,40.2,29.93,SSW,203,0.0,0.0,88,0.00,,,0.00,WUHU216HW,2013-05-23 09:36:00,
2013-05-23 02:41:00,43.6,40.2,29.93,SSW,203,0.0,0.0,88,0.00,,,0.00,WUHU216HW,2013-05-23 09:41:00,
2013-05-23 02:46:00,43.7,40.4,29.93,SW,225,0.7,0.9,88,0.00,,,0.00,WUHU216HW,2013-05-23 09:46:00,
2013-05-23 02:51:00,43.9,40.6,29.93,SW,225,0.7,0.9,88,0.00,,,0.00,WUHU216HW,2013-05-23 09:51:00,
2013-05-23 02:56:00,43.9,41.0,29.93,SW,225,0.7,1.1,89,0.00,,,0.00,WUHU216HW,2013-05-23 09:56:00,
2013-05-23 03:01:00,44.1,41.1,29.93,SW,225,0.7,1.1,89,0.00,,,0.00,WUHU216HW,2013-05-23 10:01:00,
2013-05-23 03:06:00,44.1,41.1,29.92,SW,225,0.4,1.1,89,0.00,,,0.00,WUHU216HW,2013-05-23 10:06:00,
2013-05-23 03:11:00,44.1,41.1,29.92,SW,225,0.4,1.1,89,0.00,,,0.00,WUHU216HW,2013-05-23 10:11:00,
2013-05-23 03:16:00,44.1,41.1,29.92,SW,225,0.2,0.4,89,0.00,,,0.00,WUHU216HW,2013-05-23 10:16:00,
2013-05-23 03:21:00,44.1,41.1,29.93,SW,225,0.0,0.4,89,0.00,,,0.00,WUHU216HW,2013-05-23 10:21:00,
2013-05-23 03:26:00,44.3,41.3,29.93,SW,225,0.0,0.4,89,0.00,,,0.00,WUHU216HW,2013-05-23 10:26:00,
2013-05-23 03:31:00,44.1,41.1,29.93,SW,225,0.0,0.0,89,0.00,,,0.00,WUHU216HW,2013-05-23 10:31:00,
2013-05-23 03:36:00,44.3,41.3,29.93,SW,225,0.0,0.2,89,0.00,,,0.00,WUHU216HW,2013-05-23 10:36:00,
2013-05-23 03:41:00,44.3,41.3,29.93,SW,225,0.2,0.2,89,0.00,,,0.00,WUHU216HW,2013-05-23 10:41:00,
2013-05-23 03:46:00,44.1,41.1,29.93,SW,225,0.0,0.2,89,0.00,,,0.00,WUHU216HW,2013-05-23 10:46:00,
2013-05-23 03:51:00,44.1,41.1,29.93,SE,135,0.2,0.4,89,0.01,,,0.01,WUHU216HW,2013-05-23 10:51:00,
2013-05-23 03:56:00,44.1,41.1,29.93,NNE,23,0.0,1.1,89,0.01,,,0.01,WUHU216HW,2013-05-23 10:56:00,
2013-05-23 04:01:00,44.1,41.1,29.94,NW,315,0.2,1.1,89,0.02,,,0.02,WUHU216HW,2013-05-23 11:01:00,
2013-05-23 04:06:00,44.1,41.1,29.93,North,0,0.4,0.9,89,0.02,,,0.02,WUHU216HW,2013-05-23 11:06:00,
2013-05-23 04:11:00,44.1,41.1,29.94,SW,225,0.2,1.1,89,0.03,,,0.03,WUHU216HW,2013-05-23 11:11:00,
2013-05-23 04:16:00,44.1,41.1,29.94,WSW,248,0.4,1.1,89,0.03,,,0.03,WUHU216HW,2013-05-23 11:16:00,
2013-05-23 04:21:00,44.1,41.1,29.94,West,270,0.9,1.1,89,0.04,,,0.04,WUHU216HW,2013-05-23 11:21:00,
2013-05-23 04:26:00,44.1,41.1,29.94,SSW,203,0.2,1.1,89,0.04,,,0.04,WUHU216HW,2013-05-23 11:26:00,
2013-05-23 04:31:00,44.3,41.3,29.93,WSW,248,0.0,0.9,89,0.04,,,0.04,WUHU216HW,2013-05-23 11:31:00,
2013-05-23 04:36:00,44.1,41.1,29.94,WSW,248,0.0,0.4,89,0.05,,,0.05,WUHU216HW,2013-05-23 11:36:00,
2013-05-23 04:41:00,44.3,41.3,29.94,SW,225,0.4,1.3,89,0.05,,,0.05,WUHU216HW,2013-05-23 11:41:00,
2013-05-23 04:46:00,44.3,41.3,29.94,SW,225,0.4,1.3,89,0.05,,,0.05,WUHU216HW,2013-05-23 11:46:00,
2013-05-23 04:51:00,44.3,41.3,29.94,WSW,248,0.4,0.7,89,0.04,,,0.05,WUHU216HW,2013-05-23 11:51:00,
2013-05-23 04:56:00,44.3,41.3,29.94,SW,225,0.9,0.9,89,0.04,,,0.05,WUHU216HW,2013-05-23 11:56:00,
2013-05-23 05:01:00,44.3,41.3,29.94,SW,225,0.7,1.1,89,0.04,,,0.06,WUHU216HW,2013-05-23 12:01:00,
2013-05-23 05:06:00,44.3,41.3,29.93,SW,225,0.9,1.6,89,0.04,,,0.06,WUHU216HW,2013-05-23 12:06:00,
2013-05-23 05:11:00,44.3,41.3,29.93,SW,225,1.1,1.6,89,0.03,,,0.06,WUHU216HW,2013-05-23 12:11:00,
2013-05-23 05:16:00,44.3,41.3,29.93,SW,225,1.1,1.6,89,0.03,,,0.06,WUHU216HW,2013-05-23 12:16:00,
2013-05-23 05:21:00,44.1,41.1,29.93,WSW,248,1.3,1.6,89,0.02,,,0.06,WUHU216HW,2013-05-23 12:21:00,
2013-05-23 05:26:00,44.1,41.1,29.93,SSE,158,0.4,1.6,89,0.02,,,0.06,WUHU216HW,2013-05-23 12:26:00,
2013-05-23 05:31:00,44.1,41.1,29.93,SW,225,0.2,1.3,89,0.02,,,0.06,WUHU216HW,2013-05-23 12:31:00,
2013-05-23 05:36:00,44.1,41.1,29.93,SW,225,0.4,0.7,89,0.01,,,0.06,WUHU216HW,2013-05-23 12:36:00,
2013-05-23 05:41:00,43.9,41.2,29.93,SW,225,0.0,0.7,90,0.01,,,0.06,WUHU216HW,2013-05-23 12:41:00,
2013-05-23 05:46:00,43.9,41.0,29.94,SW,225,0.0,0.7,89,0.01,,,0.06,WUHU216HW,2013-05-23 12:46:00,
2013-05-23 05:51:00,43.9,41.0,29.94,SW,225,0.0,0.4,89,0.01,,,0.06,WUHU216HW,2013-05-23 12:51:00,
2013-05-23 05:56:00,43.9,41.2,29.94,SW,225,0.0,0.4,90,0.01,,,0.06,WUHU216HW,2013-05-23 12:56:00,
2013-05-23 06:01:00,43.7,40.8,29.94,SW,225,0.2,1.1,89,0.01,,,0.07,WUHU216HW,2013-05-23 13:01:00,
2013-05-23 06:06:00,43.7,40.8,29.94,WSW,248,1.1,1.1,89,0.01,,,0.07,WUHU216HW,2013-05-23 13:06:00,
2013-05-23 06:11:00,43.6,40.6,29.94,WSW,248,0.7,1.3,89,0.01,,,0.07,WUHU216HW,2013-05-23 13:11:00,
2013-05-23 06:16:00,43.6,40.9,29.94,WSW,248,1.1,1.3,90,0.01,,,0.07,WUHU216HW,2013-05-23 13:16:00,
2013-05-23 06:21:00,43.6,40.6,29.94,SW,225,0.2,1.3,89,0.01,,,0.07,WUHU216HW,2013-05-23 13:21:00,
2013-05-23 06:26:00,43.6,40.9,29.94,SW,225,0.2,1.1,90,0.01,,,0.07,WUHU216HW,2013-05-23 13:26:00,
2013-05-23 06:31:00,43.6,40.9,29.94,SW,225,0.4,0.7,90,0.01,,,0.07,WUHU216HW,2013-05-23 13:31:00,
2013-05-23 06:36:00,43.7,41.0,29.95,SW,225,0.4,1.1,90,0.01,,,0.07,WUHU216HW,2013-05-23 13:36:00,
2013-05-23 06:41:00,43.9,41.2,29.95,SW,225,0.4,1.1,90,0.01,,,0.07,WUHU216HW,2013-05-23 13:41:00,
2013-05-23 06:46:00,43.9,41.2,29.95,SW,225,0.4,1.1,90,0.01,,,0.07,WUHU216HW,2013-05-23 13:46:00,
2013-05-23 06:51:00,44.1,41.4,29.95,SW,225,0.2,0.9,90,0.01,,,0.07,WUHU216HW,2013-05-23 13:51:00,
2013-05-23 06:56:00,44.1,41.4,29.95,SW,225,0.0,0.4,90,0.01,,,0.07,WUHU216HW,2013-05-23 13:56:00,
2013-05-23 07:01:00,44.3,41.6,29.95,SW,225,0.2,0.4,90,0.00,,,0.07,WUHU216HW,2013-05-23 14:01:00,
2013-05-23 07:06:00,44.5,41.8,29.95,SW,225,0.0,0.4,90,0.00,,,0.07,WUHU216HW,2013-05-23 14:06:00,
2013-05-23 07:11:00,44.6,42.2,29.95,SW,225,0.0,0.4,91,0.00,,,0.07,WUHU216HW,2013-05-23 14:11:00,
2013-05-23 07:16:00,44.6,42.2,29.95,SW,225,0.0,0.2,91,0.00,,,0.07,WUHU216HW,2013-05-23 14:16:00,
2013-05-23 07:21:00,44.8,42.4,29.95,SW,225,0.4,0.4,91,0.00,,,0.07,WUHU216HW,2013-05-23 14:21:00,
2013-05-23 07:26:00,45.0,42.6,29.95,South,180,0.0,1.1,91,0.01,,,0.08,WUHU216HW,2013-05-23 14:26:00,
2013-05-23 07:31:00,45.2,42.8,29.95,WSW,248,0.2,1.1,91,0.01,,,0.08,WUHU216HW,2013-05-23 14:31:00,
2013-05-23 07:36:00,45.4,42.9,29.95,SW,225,0.0,0.4,91,0.01,,,0.08,WUHU216HW,2013-05-23 14:36:00,
2013-05-23 07:41:00,45.5,43.1,29.95,WSW,248,0.4,1.6,91,0.01,,,0.08,WUHU216HW,2013-05-23 14:41:00,
2013-05-23 07:46:00,45.7,43.3,29.95,WSW,248,1.1,1.8,91,0.01,,,0.08,WUHU216HW,2013-05-23 14:46:00,
2013-05-23 07:51:00,45.7,43.3,29.95,SW,225,0.4,1.8,91,0.01,,,0.08,WUHU216HW,2013-05-23 14:51:00,
2013-05-23 07:56:00,45.7,43.3,29.95,SW,225,0.0,2.0,91,0.01,,,0.08,WUHU216HW,2013-05-23 14:56:00,
2013-05-23 08:01:00,45.9,43.5,29.96,SSW,203,0.0,2.0,91,0.01,,,0.08,WUHU216HW,2013-05-23 15:01:00,
2013-05-23 08:06:00,45.9,43.5,29.96,SW,225,0.4,1.6,91,0.01,,,0.08,WUHU216HW,2013-05-23 15:06:00,
2013-05-23 08:11:00,45.9,43.5,29.96,South,180,0.4,1.1,91,0.01,,,0.08,WUHU216HW,2013-05-23 15:11:00,
2013-05-23 08:16:00,46.1,43.7,29.96,SE,135,0.0,1.1,91,0.01,,,0.08,WUHU216HW,2013-05-23 15:16:00,
2013-05-23 08:21:00,46.1,43.7,29.96,SW,225,0.9,1.8,91,0.01,,,0.08,WUHU216HW,2013-05-23 15:21:00,
2013-05-23 08:26:00,46.1,43.7,29.96,WSW,248,0.0,2.5,91,0.00,,,0.08,WUHU216HW,2013-05-23 15:26:00,
2013-05-23 08:31:00,46.3,43.8,29.96,SW,225,0.0,2.5,91,0.00,,,0.08,WUHU216HW,2013-05-23 15:31:00,
2013-05-23 08:36:00,46.3,43.8,29.96,WSW,248,0.0,1.6,91,0.00,,,0.08,WUHU216HW,2013-05-23 15:36:00,
2013-05-23 08:41:00,46.4,44.0,29.96,West,270,0.0,0.4,91,0.00,,,0.08,WUHU216HW,2013-05-23 15:41:00,
2013-05-23 08:46:00,46.6,44.2,29.96,North,0,0.2,0.4,91,0.00,,,0.08,WUHU216HW,2013-05-23 15:46:00,
2013-05-23 08:51:00,47.0,44.6,29.97,ENE,68,0.0,0.4,91,0.00,,,0.08,WUHU216HW,2013-05-23 15:51:00,
2013-05-23 08:56:00,47.2,44.7,29.97,ENE,68,0.2,0.4,91,0.00,,,0.08,WUHU216HW,2013-05-23 15:56:00,
2013-05-23 09:01:00,47.3,44.9,29.97,ESE,113,1.1,1.3,91,0.00,,,0.08,WUHU216HW,2013-05-23 16:01:00,
2013-05-23 09:06:00,47.2,44.5,29.97,East,90,1.6,2.5,90,0.00,,,0.08,WUHU216HW,2013-05-23 16:06:00,
2013-05-23 09:11:00,47.2,44.5,29.97,East,90,0.4,2.5,90,0.00,,,0.08,WUHU216HW,2013-05-23 16:11:00,
2013-05-23 09:16:00,47.5,44.8,29.97,ENE,68,0.9,1.8,90,0.00,,,0.08,WUHU216HW,2013-05-23 16:16:00,
2013-05-23 09:21:00,47.5,44.5,29.97,ENE,68,0.0,1.3,89,0.00,,,0.08,WUHU216HW,2013-05-23 16:21:00,
2013-05-23 09:26:00,47.5,44.5,29.97,WSW,248,0.2,1.1,89,0.00,,,0.08,WUHU216HW,2013-05-23 16:26:00,
2013-05-23 09:31:00,47.7,44.6,29.97,SE,135,0.0,0.7,89,0.00,,,0.08,WUHU216HW,2013-05-23 16:31:00,
2013-05-23 09:36:00,47.9,44.8,29.97,ESE,113,1.1,1.3,89,0.00,,,0.08,WUHU216HW,2013-05-23 16:36:00,
2013-05-23 09:41:00,47.9,44.8,29.97,North,0,0.4,2.0,89,0.00,,,0.08,WUHU216HW,2013-05-23 16:41:00,
2013-05-23 09:45:00,47.9,44.8,29.97,NNE,23,0.9,2.0,89,0.00,,,0.08,WUHU216HW,2013-05-23 16:45:00,
2013-05-23 09:50:00,48.1,45.0,29.97,ENE,68,0.9,1.8,89,0.00,,,0.08,WUHU216HW,2013-05-23 16:50:00,
2013-05-23 09:55:00,48.4,45.4,29.97,North,0,0.9,2.7,89,0.00,,,0.08,WUHU216HW,2013-05-23 16:55:00,
2013-05-23 11:00:00,50.8,46.4,29.96,ESE,113,1.6,1.6,85,0.00,,,0.08,WUHU216HW,2013-05-23 18:00:00,
2013-05-23 11:05:00,50.8,46.6,29.96,SSW,203,1.6,2.0,86,0.00,,,0.08,WUHU216HW,2013-05-23 18:05:00,
2013-05-23 11:10:00,51.1,47.0,29.96,ENE,68,1.6,2.5,86,0.00,,,0.08,WUHU216HW,2013-05-23 18:10:00,
2013-05-23 11:15:00,51.5,47.3,29.96,SE,135,0.4,2.5,86,0.00,,,0.08,WUHU216HW,2013-05-23 18:15:00,
2013-05-23 11:20:00,52.0,47.9,29.96,SE,135,1.1,3.4,86,0.00,,,0.08,WUHU216HW,2013-05-23 18:20:00,
2013-05-23 11:25:00,52.2,47.8,29.96,SSE,158,1.8,3.4,85,0.00,,,0.08,WUHU216HW,2013-05-23 18:25:00,
2013-05-23 11:30:00,52.6,47.9,29.96,SW,225,0.2,3.4,84,0.00,,,0.08,WUHU216HW,2013-05-23 18:30:00,
2013-05-23 11:35:00,52.7,48.1,29.96,SE,135,1.1,3.6,84,0.00,,,0.08,WUHU216HW,2013-05-23 18:35:00,
2013-05-23 11:40:00,52.6,47.9,29.96,SW,225,1.1,3.8,84,0.01,,,0.09,WUHU216HW,2013-05-23 18:40:00,
2013-05-23 11:45:00,52.4,47.7,29.97,SSE,158,0.0,3.8,84,0.02,,,0.10,WUHU216HW,2013-05-23 18:45:00,
2013-05-23 11:50:00,52.2,47.8,29.96,SE,135,0.4,1.8,85,0.03,,,0.11,WUHU216HW,2013-05-23 18:50:00,
2013-05-23 11:55:00,51.7,47.3,29.96,SW,225,1.1,1.3,85,0.04,,,0.12,WUHU216HW,2013-05-23 18:55:00,
2013-05-23 12:00:00,51.5,47.1,29.96,SW,225,0.4,1.3,85,0.04,,,0.12,WUHU216HW,2013-05-23 19:00:00,
2013-05-23 12:05:00,51.5,47.3,29.96,SE,135,0.7,1.1,86,0.04,,,0.12,WUHU216HW,2013-05-23 19:05:00,
2013-05-23 12:10:00,52.0,47.9,29.96,SSW,203,0.0,1.1,86,0.04,,,0.12,WUHU216HW,2013-05-23 19:10:00,
2013-05-23 12:15:00,52.2,48.1,29.96,East,90,0.7,1.8,86,0.04,,,0.12,WUHU216HW,2013-05-23 19:15:00,
2013-05-23 12:20:00,52.6,48.2,29.96,SSE,158,2.7,5.1,85,0.04,,,0.12,WUHU216HW,2013-05-23 19:20:00,
2013-05-23 12:25:00,52.6,48.2,29.96,SW,225,2.5,6.3,85,0.04,,,0.12,WUHU216HW,2013-05-23 19:25:00,
2013-05-23 12:30:00,52.6,48.2,29.96,WSW,248,6.7,6.7,85,0.04,,,0.12,WUHU216HW,2013-05-23 19:30:00,
2013-05-23 12:35:00,52.2,47.5,29.96,SSE,158,0.7,7.6,84,0.05,,,0.13,WUHU216HW,2013-05-23 19:35:00,
2013-05-23 12:39:00,51.7,47.3,29.97,SW,225,2.0,7.6,85,0.04,,,0.13,WUHU216HW,2013-05-23 19:39:00,
2013-05-23 12:44:00,51.1,46.7,29.97,South,180,2.9,5.1,85,0.04,,,0.14,WUHU216HW,2013-05-23 19:44:00,
2013-05-23 12:49:00,50.9,46.5,29.97,SW,225,2.2,6.3,85,0.03,,,0.14,WUHU216HW,2013-05-23 19:49:00,
2013-05-23 12:54:00,50.8,46.6,29.97,WSW,248,1.6,6.3,86,0.02,,,0.14,WUHU216HW,2013-05-23 19:54:00,
2013-05-23 12:59:00,50.8,46.6,29.96,West,270,1.1,6.0,86,0.02,,,0.14,WUHU216HW,2013-05-23 19:59:00,
2013-05-23 13:04:00,50.8,46.6,29.97,SSE,158,1.8,6.0,86,0.02,,,0.14,WUHU216HW,2013-05-23 20:04:00,
2013-05-23 13:09:00,50.8,46.6,29.97,WSW,248,1.3,3.6,86,0.02,,,0.14,WUHU216HW,2013-05-23 20:09:00,
2013-05-23 13:14:00,50.8,46.6,29.97,SSW,203,2.5,2.5,86,0.02,,,0.14,WUHU216HW,2013-05-23 20:14:00,
2013-05-23 13:19:00,50.6,46.4,29.97,SSW,203,2.7,4.7,86,0.02,,,0.14,WUHU216HW,2013-05-23 20:19:00,
2013-05-23 13:24:00,50.6,46.4,29.97,SSW,203,1.3,4.7,86,0.02,,,0.14,WUHU216HW,2013-05-23 20:24:00,
2013-05-23 13:29:00,50.8,46.4,29.97,WSW,248,4.3,4.5,85,0.02,,,0.14,WUHU216HW,2013-05-23 20:29:00,
2013-05-23 13:34:00,50.8,46.4,29.97,SW,225,1.3,4.3,85,0.01,,,0.14,WUHU216HW,2013-05-23 20:34:00,
2013-05-23 13:39:00,50.8,46.1,29.98,WSW,248,3.6,4.3,84,0.01,,,0.14,WUHU216HW,2013-05-23 20:39:00,
2013-05-23 13:44:00,50.6,45.9,29.97,SSW,203,0.7,4.7,84,0.00,,,0.14,WUHU216HW,2013-05-23 20:44:00,
2013-05-23 13:49:00,50.4,45.7,29.97,SW,225,0.7,4.7,84,0.00,,,0.14,WUHU216HW,2013-05-23 20:49:00,
2013-05-23 13:54:00,50.6,46.2,29.98,SW,225,1.1,4.0,85,0.00,,,0.14,WUHU216HW,2013-05-23 20:54:00,
2013-05-23 13:59:00,50.4,46.0,29.98,South,180,0.9,4.7,85,0.00,,,0.14,WUHU216HW,2013-05-23 20:59:00,
2013-05-23 14:04:00,50.4,46.0,29.98,WSW,248,0.4,4.7,85,0.00,,,0.14,WUHU216HW,2013-05-23 21:04:00,
2013-05-23 14:09:00,50.2,45.8,29.98,NE,45,1.3,2.5,85,0.00,,,0.14,WUHU216HW,2013-05-23 21:09:00,
2013-05-23 14:14:00,50.0,45.6,29.98,SSW,203,0.0,3.6,85,0.00,,,0.14,WUHU216HW,2013-05-23 21:14:00,
2013-05-23 14:19:00,50.0,45.6,29.99,SW,225,2.5,3.6,85,0.00,,,0.14,WUHU216HW,2013-05-23 21:19:00,
2013-05-23 14:24:00,50.0,45.6,29.99,SSE,158,0.0,3.4,85,0.00,,,0.14,WUHU216HW,2013-05-23 21:24:00,
2013-05-23 14:29:00,50.0,45.6,29.99,SW,225,1.1,3.4,85,0.00,,,0.14,WUHU216HW,2013-05-23 21:29:00,
2013-05-23 14:34:00,50.0,45.6,29.99,SE,135,1.3,4.0,85,0.00,,,0.14,WUHU216HW,2013-05-23 21:34:00,
2013-05-23 14:39:00,50.0,45.6,29.99,East,90,0.4,4.0,85,0.01,,,0.15,WUHU216HW,2013-05-23 21:39:00,
2013-05-23 14:44:00,50.0,45.6,29.99,SSW,203,0.4,3.6,85,0.01,,,0.15,WUHU216HW,2013-05-23 21:44:00,
2013-05-23 14:49:00,50.0,45.6,29.99,SE,135,0.4,4.0,85,0.01,,,0.15,WUHU216HW,2013-05-23 21:49:00,
2013-05-23 14:54:00,50.0,45.6,29.99,NW,315,0.4,4.3,85,0.01,,,0.15,WUHU216HW,2013-05-23 21:54:00,
2013-05-23 14:59:00,49.7,45.3,29.99,SE,135,0.0,4.3,85,0.01,,,0.15,WUHU216HW,2013-05-23 21:59:00,
2013-05-23 15:04:00,49.7,45.6,29.99,SW,225,1.8,2.5,86,0.02,,,0.16,WUHU216HW,2013-05-23 22:04:00,
2013-05-23 15:09:00,49.7,45.6,29.99,ESE,113,0.0,2.0,86,0.02,,,0.16,WUHU216HW,2013-05-23 22:09:00,
2013-05-23 15:14:00,49.7,45.6,29.99,SW,225,0.2,2.2,86,0.02,,,0.16,WUHU216HW,2013-05-23 22:14:00,
2013-05-23 15:19:00,49.7,45.6,29.99,West,270,1.1,2.2,86,0.02,,,0.16,WUHU216HW,2013-05-23 22:19:00,
2013-05-23 15:24:00,49.9,45.8,29.99,SE,135,0.9,1.8,86,0.02,,,0.16,WUHU216HW,2013-05-23 22:24:00,
2013-05-23 15:29:00,49.7,45.6,29.99,SW,225,0.0,1.8,86,0.03,,,0.17,WUHU216HW,2013-05-23 22:29:00,
2013-05-23 15:34:00,50.0,45.9,29.99,SSE,158,0.4,1.1,86,0.03,,,0.17,WUHU216HW,2013-05-23 22:34:00,
2013-05-23 15:39:00,49.9,45.8,29.99,SW,225,0.7,1.1,86,0.02,,,0.17,WUHU216HW,2013-05-23 22:39:00,
2013-05-23 15:44:00,49.7,45.6,29.99,NE,45,0.0,1.1,86,0.03,,,0.18,WUHU216HW,2013-05-23 22:44:00,
2013-05-23 15:49:00,49.7,45.6,29.99,SE,135,0.4,2.5,86,0.03,,,0.18,WUHU216HW,2013-05-23 22:49:00,
2013-05-23 15:54:00,49.5,45.1,29.99,West,270,0.9,2.5,85,0.03,,,0.18,WUHU216HW,2013-05-23 22:54:00,
2013-05-23 15:59:00,49.3,44.9,29.99,SW,225,1.1,1.8,85,0.03,,,0.18,WUHU216HW,2013-05-23 22:59:00,
2013-05-23 16:04:00,49.3,44.9,29.98,SE,135,0.0,1.1,85,0.02,,,0.18,WUHU216HW,2013-05-23 23:04:00,
2013-05-23 16:09:00,49.5,45.5,29.98,WSW,248,0.4,1.1,86,0.03,,,0.19,WUHU216HW,2013-05-23 23:09:00,
2013-05-23 16:14:00,49.7,45.9,29.99,SE,135,0.2,0.7,87,0.03,,,0.19,WUHU216HW,2013-05-23 23:14:00,
2013-05-23 16:19:00,49.7,45.9,29.99,SSE,158,0.0,0.7,87,0.03,,,0.19,WUHU216HW,2013-05-23 23:19:00,
2013-05-23 16:24:00,49.7,45.9,29.98,WSW,248,0.2,0.4,87,0.03,,,0.19,WUHU216HW,2013-05-23 23:24:00,
2013-05-23 16:29:00,49.9,46.1,29.98,SSE,158,0.2,0.7,87,0.03,,,0.20,WUHU216HW,2013-05-23 23:29:00,
2013-05-23 16:34:00,49.7,45.6,29.98,NNW,338,0.4,0.7,86,0.03,,,0.20,WUHU216HW,2013-05-23 23:34:00,
2013-05-23 16:39:00,49.7,45.9,29.98,West,270,0.2,0.4,87,0.03,,,0.20,WUHU216HW,2013-05-23 23:39:00,
2013-05-23 16:44:00,49.7,45.9,29.98,SE,135,0.0,0.7,87,0.02,,,0.20,WUHU216HW,2013-05-23 23:44:00,
2013-05-23 16:49:00,49.7,45.9,29.98,SE,135,0.0,0.7,87,0.03,,,0.21,WUHU216HW,2013-05-23 23:49:00,
2013-05-23 16:54:00,50.0,45.9,29.98,WSW,248,0.4,0.9,86,0.03,,,0.21,WUHU216HW,2013-05-23 23:54:00,
2013-05-23 16:59:00,50.0,45.9,29.97,West,270,0.0,1.1,86,0.03,,,0.21,WUHU216HW,2013-05-23 23:59:00,
2013-05-23 17:04:00,50.0,45.9,29.97,West,270,0.4,1.1,86,0.03,,,0.21,WUHU216HW,2013-05-24 00:04:00,
2013-05-23 17:09:00,50.0,45.9,29.97,NNE,23,1.1,1.1,86,0.02,,,0.21,WUHU216HW,2013-05-24 00:09:00,
2013-05-23 17:14:00,50.0,46.3,29.97,ENE,68,1.1,1.1,87,0.02,,,0.21,WUHU216HW,2013-05-24 00:14:00,
2013-05-23 17:19:00,49.9,46.1,29.97,ESE,113,0.4,1.1,87,0.02,,,0.21,WUHU216HW,2013-05-24 00:19:00,
2013-05-23 17:24:00,49.7,45.9,29.97,ESE,113,0.4,1.1,87,0.02,,,0.21,WUHU216HW,2013-05-24 00:24:00,
2013-05-23 17:29:00,49.7,46.3,29.97,ENE,68,0.9,1.1,88,0.01,,,0.21,WUHU216HW,2013-05-24 00:29:00,
2013-05-23 17:34:00,49.3,45.9,29.97,ENE,68,1.6,1.8,88,0.01,,,0.21,WUHU216HW,2013-05-24 00:34:00,
2013-05-23 17:39:00,49.0,45.5,29.97,East,90,1.1,1.8,88,0.01,,,0.21,WUHU216HW,2013-05-24 00:39:00,
2013-05-23 17:44:00,48.6,45.2,29.97,East,90,0.4,1.8,88,0.01,,,0.21,WUHU216HW,2013-05-24 00:44:00,
2013-05-23 17:49:00,48.6,45.2,29.97,North,0,1.3,2.0,88,0.00,,,0.21,WUHU216HW,2013-05-24 00:49:00,
2013-05-23 17:54:00,48.8,45.4,29.97,ENE,68,1.1,2.0,88,0.00,,,0.21,WUHU216HW,2013-05-24 00:54:00,
2013-05-23 17:59:00,48.8,45.4,29.97,North,0,1.1,1.8,88,0.00,,,0.21,WUHU216HW,2013-05-24 00:59:00,
2013-05-23 18:04:00,48.6,45.2,29.97,NE,45,0.0,2.0,88,0.00,,,0.21,WUHU216HW,2013-05-24 01:04:00,
2013-05-23 18:09:00,48.8,45.4,29.97,ENE,68,0.4,2.0,88,0.00,,,0.21,WUHU216HW,2013-05-24 01:09:00,
2013-05-23 18:14:00,48.8,45.4,29.97,ENE,68,0.0,1.8,88,0.01,,,0.22,WUHU216HW,2013-05-24 01:14:00,
2013-05-23 18:19:00,48.8,45.4,29.96,North,0,0.4,2.2,88,0.01,,,0.22,WUHU216HW,2013-05-24 01:19:00,
2013-05-23 18:24:00,48.8,45.4,29.96,East,90,0.4,2.2,88,0.01,,,0.22,WUHU216HW,2013-05-24 01:24:00,
2013-05-23 18:29:00,48.8,45.4,29.96,East,90,0.7,1.1,88,0.01,,,0.22,WUHU216HW,2013-05-24 01:29:00,
2013-05-23 18:34:00,48.6,45.2,29.96,NE,45,0.0,1.1,88,0.01,,,0.22,WUHU216HW,2013-05-24 01:34:00,
2013-05-23 18:39:00,48.8,45.4,29.96,North,0,0.0,0.7,88,0.01,,,0.22,WUHU216HW,2013-05-24 01:39:00,
2013-05-23 18:44:00,48.8,45.4,29.95,North,0,0.2,0.2,88,0.01,,,0.22,WUHU216HW,2013-05-24 01:44:00,
2013-05-23 18:49:00,49.0,45.5,29.96,North,0,0.4,0.4,88,0.01,,,0.22,WUHU216HW,2013-05-24 01:49:00,
2013-05-23 18:54:00,49.0,45.5,29.96,NNE,23,0.7,1.8,88,0.01,,,0.22,WUHU216HW,2013-05-24 01:54:00,
2013-05-23 18:59:00,49.0,45.5,29.95,NE,45,0.0,1.8,88,0.01,,,0.22,WUHU216HW,2013-05-24 01:59:00,
2013-05-23 19:04:00,49.0,45.5,29.95,NE,45,0.4,1.3,88,0.01,,,0.22,WUHU216HW,2013-05-24 02:04:00,
2013-05-23 19:09:00,49.0,45.5,29.96,North,0,0.2,2.0,88,0.01,,,0.22,WUHU216HW,2013-05-24 02:09:00,
2013-05-23 19:14:00,48.8,45.4,29.95,East,90,0.2,2.0,88,0.00,,,0.22,WUHU216HW,2013-05-24 02:14:00,
2013-05-23 19:19:00,48.8,45.4,29.95,NNE,23,0.7,1.1,88,0.00,,,0.22,WUHU216HW,2013-05-24 02:19:00,
2013-05-23 19:24:00,48.8,45.4,29.95,NNE,23,0.0,1.6,88,0.00,,,0.22,WUHU216HW,2013-05-24 02:24:00,
2013-05-23 19:29:00,48.8,45.7,29.96,NNE,23,0.0,1.6,89,0.00,,,0.22,WUHU216HW,2013-05-24 02:29:00,
2013-05-23 19:34:00,48.6,45.2,29.96,ENE,68,0.2,1.3,88,0.00,,,0.22,WUHU216HW,2013-05-24 02:34:00,
2013-05-23 19:39:00,48.6,45.5,29.96,NE,45,1.3,2.2,89,0.00,,,0.22,WUHU216HW,2013-05-24 02:39:00,
2013-05-23 19:44:00,48.4,45.4,29.96,East,90,1.1,2.2,89,0.00,,,0.22,WUHU216HW,2013-05-24 02:44:00,
2013-05-23 19:49:00,48.4,45.4,29.96,NNE,23,0.9,1.8,89,0.00,,,0.22,WUHU216HW,2013-05-24 02:49:00,
2013-05-23 19:54:00,48.4,45.4,29.96,ESE,113,0.9,1.6,89,0.00,,,0.22,WUHU216HW,2013-05-24 02:54:00,
2013-05-23 19:59:00,48.2,45.2,29.96,NNE,23,0.2,1.1,89,0.00,,,0.22,WUHU216HW,2013-05-24 02:59:00,
2013-05-23 20:04:00,48.2,45.2,29.96,ENE,68,1.3,2.7,89,0.00,,,0.22,WUHU216HW,2013-05-24 03:04:00,
2013-05-23 20:09:00,48.2,45.2,29.95,East,90,0.4,2.7,89,0.00,,,0.22,WUHU216HW,2013-05-24 03:09:00,
2013-05-23 20:14:00,48.2,45.2,29.95,NNE,23,1.1,1.6,89,0.00,,,0.22,WUHU216HW,2013-05-24 03:14:00,
2013-05-23 20:19:00,48.2,45.2,29.96,NE,45,0.4,1.6,89,0.00,,,0.22,WUHU216HW,2013-05-24 03:19:00,
2013-05-23 20:24:00,48.1,45.0,29.96,NNE,23,0.4,1.6,89,0.00,,,0.22,WUHU216HW,2013-05-24 03:24:00,
2013-05-23 20:29:00,48.2,45.2,29.95,NNE,23,0.0,1.3,89,0.00,,,0.22,WUHU216HW,2013-05-24 03:29:00,
2013-05-23 20:34:00,48.2,45.2,29.95,North,0,0.0,0.4,89,0.00,,,0.22,WUHU216HW,2013-05-24 03:34:00,
2013-05-23 20:39:00,48.2,45.2,29.95,East,90,0.2,0.7,89,0.00,,,0.22,WUHU216HW,2013-05-24 03:39:00,
2013-05-23 20:44:00,48.2,45.2,29.95,East,90,0.0,0.7,89,0.00,,,0.22,WUHU216HW,2013-05-24 03:44:00,
2013-05-23 20:49:00,48.1,45.0,29.95,East,90,0.0,0.7,89,0.00,,,0.22,WUHU216HW,2013-05-24 03:49:00,
2013-05-23 20:54:00,48.1,45.0,29.95,East,90,0.0,0.7,89,0.00,,,0.22,WUHU216HW,2013-05-24 03:54:00,
2013-05-23 20:59:00,48.1,45.4,29.96,East,90,0.0,0.0,90,0.00,,,0.22,WUHU216HW,2013-05-24 03:59:00,
2013-05-23 21:01:00,48.1,45.4,29.95,East,90,0.0,0.0,90,0.00,,,0.22,WUHU216HW,2013-05-24 04:01:00,
2013-05-23 21:06:00,48.1,45.4,29.95,East,90,0.0,0.0,90,0.00,,,0.22,WUHU216HW,2013-05-24 04:06:00,
2013-05-23 21:11:00,48.1,45.4,29.95,East,90,0.0,0.0,90,0.00,,,0.22,WUHU216HW,2013-05-24 04:11:00,
2013-05-23 21:16:00,48.1,45.4,29.95,East,90,0.0,0.2,90,0.00,,,0.22,WUHU216HW,2013-05-24 04:16:00,
2013-05-23 21:21:00,48.1,45.4,29.95,WNW,293,0.4,1.1,90,0.00,,,0.22,WUHU216HW,2013-05-24 04:21:00,
2013-05-23 21:26:00,48.1,45.4,29.96,WNW,293,0.0,1.1,90,0.00,,,0.22,WUHU216HW,2013-05-24 04:26:00,
2013-05-23 21:31:00,48.1,45.4,29.96,WSW,248,0.0,0.4,90,0.00,,,0.22,WUHU216HW,2013-05-24 04:31:00,
2013-05-23 21:36:00,48.1,45.4,29.96,WSW,248,0.2,0.2,90,0.00,,,0.22,WUHU216HW,2013-05-24 04:36:00,
2013-05-23 21:41:00,48.1,45.4,29.96,WSW,248,0.0,0.2,90,0.00,,,0.22,WUHU216HW,2013-05-24 04:41:00,
2013-05-23 21:46:00,48.1,45.4,29.96,WSW,248,0.0,0.2,90,0.00,,,0.22,WUHU216HW,2013-05-24 04:46:00,
2013-05-23 21:51:00,48.1,45.4,29.96,West,270,0.0,0.0,90,0.00,,,0.22,WUHU216HW,2013-05-24 04:51:00,
2013-05-23 21:56:00,48.1,45.4,29.97,NW,315,0.0,0.0,90,0.00,,,0.22,WUHU216HW,2013-05-24 04:56:00,
2013-05-23 22:01:00,48.1,45.4,29.97,NW,315,0.0,0.4,90,0.00,,,0.22,WUHU216HW,2013-05-24 05:01:00,
2013-05-23 22:06:00,48.1,45.4,29.97,NW,315,0.0,0.4,90,0.00,,,0.22,WUHU216HW,2013-05-24 05:06:00,
2013-05-23 22:11:00,48.1,45.4,29.97,NW,315,0.0,0.0,90,0.00,,,0.22,WUHU216HW,2013-05-24 05:11:00,
2013-05-23 22:16:00,48.1,45.4,29.97,NW,315,0.0,0.0,90,0.00,,,0.22,WUHU216HW,2013-05-24 05:16:00,
2013-05-23 22:21:00,48.1,45.4,29.97,NW,315,0.0,0.0,90,0.00,,,0.22,WUHU216HW,2013-05-24 05:21:00,
2013-05-23 22:26:00,48.1,45.4,29.97,NNW,338,0.0,0.2,90,0.00,,,0.22,WUHU216HW,2013-05-24 05:26:00,
2013-05-23 22:31:00,48.1,45.4,29.97,NNW,338,0.0,0.2,90,0.00,,,0.22,WUHU216HW,2013-05-24 05:31:00,
2013-05-23 22:36:00,48.1,45.4,29.97,WNW,293,0.2,0.4,90,0.01,,,0.23,WUHU216HW,2013-05-24 05:36:00,
2013-05-23 22:41:00,48.1,45.4,29.96,NW,315,0.0,0.4,90,0.01,,,0.23,WUHU216HW,2013-05-24 05:41:00,
2013-05-23 22:46:00,48.1,45.4,29.96,WSW,248,0.2,0.4,90,0.01,,,0.23,WUHU216HW,2013-05-24 05:46:00,
2013-05-23 22:51:00,48.1,45.4,29.96,NNW,338,0.0,0.7,90,0.01,,,0.23,WUHU216HW,2013-05-24 05:51:00,
2013-05-23 22:56:00,47.9,45.2,29.96,NNW,338,0.0,0.7,90,0.01,,,0.23,WUHU216HW,2013-05-24 05:56:00,
2013-05-23 23:01:00,47.9,45.2,29.96,NNW,338,0.0,0.4,90,0.01,,,0.23,WUHU216HW,2013-05-24 06:01:00,
2013-05-23 23:06:00,47.9,45.2,29.97,NNW,338,0.0,0.0,90,0.01,,,0.23,WUHU216HW,2013-05-24 06:06:00,
2013-05-23 23:11:00,47.9,45.2,29.96,NNW,338,0.0,0.0,90,0.01,,,0.23,WUHU216HW,2013-05-24 06:11:00,
2013-05-23 23:16:00,47.9,45.2,29.96,WSW,248,0.0,0.4,90,0.01,,,0.23,WUHU216HW,2013-05-24 06:16:00,
2013-05-23 23:21:00,47.9,45.2,29.96,SW,225,0.2,0.7,90,0.01,,,0.23,WUHU216HW,2013-05-24 06:21:00,
2013-05-23 23:26:00,47.9,45.2,29.96,WSW,248,0.2,0.9,90,0.01,,,0.23,WUHU216HW,2013-05-24 06:26:00,
2013-05-23 23:31:00,47.7,45.0,29.96,WSW,248,0.2,0.9,90,0.01,,,0.23,WUHU216HW,2013-05-24 06:31:00,
2013-05-23 23:36:00,47.7,45.0,29.96,SW,225,0.0,0.7,90,0.00,,,0.23,WUHU216HW,2013-05-24 06:36:00,
2013-05-23 23:41:00,47.7,45.0,29.96,SW,225,0.0,0.4,90,0.00,,,0.23,WUHU216HW,2013-05-24 06:41:00,
2013-05-23 23:46:00,47.5,44.8,29.96,North,0,0.0,1.1,90,0.00,,,0.23,WUHU216HW,2013-05-24 06:46:00,
2013-05-23 23:51:00,47.5,44.8,29.96,North,0,0.0,1.1,90,0.00,,,0.23,WUHU216HW,2013-05-24 06:51:00,
2013-05-23 23:56:00,47.5,44.8,29.96,North,0,0.0,0.4,90,0.00,,,0.23,WUHU216HW,2013-05-24 06:56:00,